Terminal Aerodrome Forecast
Issued by NWS

Home | Current Version | Previous Version | Text Only | Print | Product List | Glossary On
Versions: 1 2 3 4 5 6 7 8 9 10 11 12
000
FTUS44 KOUN 181720
TAFWWR
TAF
KWWR 181720Z 1818/1918 19012G17KT P6SM SCT250
     FM190000 17011KT P6SM BKN250
     FM191200 18014G24KT P6SM BKN250
      AMD NOT SKED=

USA.gov is the U.S. government's official web portal to all federal, state and local government web resources and services.